createdAt,value
2018-07-16T06:29:09.608Z,20.90
2018-07-16T06:31:37.825Z,21.60
2018-07-16T06:34:06.298Z,21.90
2018-07-16T06:36:34.508Z,22.00
2018-07-16T06:39:02.968Z,22.30
2018-07-16T06:41:31.654Z,22.40
2018-07-16T06:43:59.460Z,22.20
2018-07-16T06:46:27.679Z,22.10
2018-07-16T06:48:55.914Z,22.00
2018-07-16T06:51:24.181Z,22.00
2018-07-16T06:53:52.392Z,22.10
2018-07-16T06:56:20.628Z,22.20
2018-07-16T06:58:48.852Z,22.50
2018-07-16T07:01:17.259Z,22.70
2018-07-16T07:03:45.488Z,23.00
2018-07-16T07:06:13.715Z,23.30
2018-07-16T07:08:41.929Z,23.40
2018-07-16T07:11:10.168Z,23.50
2018-07-16T07:13:38.408Z,23.90
2018-07-16T07:16:06.640Z,24.10
2018-07-16T07:18:34.848Z,24.20
2018-07-16T07:21:03.102Z,24.40
2018-07-16T07:23:31.308Z,24.60
2018-07-16T07:25:59.572Z,24.60
2018-07-16T07:28:27.805Z,24.70
2018-07-16T07:30:56.052Z,24.80
2018-07-16T07:33:24.289Z,25.00
2018-07-16T07:35:52.539Z,25.00
2018-07-16T07:38:20.764Z,25.10
2018-07-16T07:40:48.982Z,25.40
2018-07-16T07:43:17.212Z,25.40
2018-07-16T07:45:45.437Z,25.50
2018-07-16T07:48:13.668Z,25.70
2018-07-16T07:50:41.889Z,25.60
2018-07-16T07:53:10.121Z,24.90
2018-07-16T07:55:38.387Z,24.80
2018-07-16T07:58:06.604Z,24.80
2018-07-16T08:00:34.840Z,24.70
2018-07-16T08:03:03.075Z,24.50
2018-07-16T08:05:31.381Z,24.70
2018-07-16T08:07:59.642Z,24.80
2018-07-16T08:10:27.869Z,24.90
2018-07-16T08:12:56.132Z,24.90
2018-07-16T08:15:24.395Z,25.10
2018-07-16T08:17:52.632Z,25.00
2018-07-16T08:20:20.929Z,25.00
2018-07-16T08:22:49.167Z,25.20
2018-07-16T08:25:17.468Z,25.30
2018-07-16T08:27:45.701Z,25.30
2018-07-16T08:30:13.960Z,25.20
2018-07-16T08:32:42.200Z,25.30
2018-07-16T08:35:10.458Z,25.30
2018-07-16T08:37:38.703Z,25.20
2018-07-16T08:40:07.484Z,25.30
2018-07-16T08:42:35.716Z,25.30
2018-07-16T08:45:03.992Z,25.40
2018-07-16T08:47:32.221Z,25.50
2018-07-16T08:50:00.456Z,25.70
2018-07-16T08:52:28.691Z,25.70
2018-07-16T08:54:56.915Z,25.90
2018-07-16T08:57:25.132Z,26.00
2018-07-16T08:59:53.383Z,26.00
2018-07-16T09:02:21.604Z,26.10
2018-07-16T09:04:49.852Z,26.10
2018-07-16T09:07:18.084Z,26.00
2018-07-16T09:09:46.338Z,26.10
2018-07-16T09:12:14.564Z,26.20
2018-07-16T09:14:42.826Z,26.30
2018-07-16T09:17:11.232Z,26.20
2018-07-16T09:19:39.492Z,26.10
2018-07-16T09:22:08.088Z,26.30
2018-07-16T09:24:36.324Z,26.30
2018-07-16T09:27:04.558Z,26.30
2018-07-16T09:29:32.786Z,26.40
2018-07-16T09:32:01.021Z,26.30
2018-07-16T09:34:29.236Z,26.50
2018-07-16T09:36:57.472Z,26.50
2018-07-16T09:39:25.684Z,26.40
2018-07-16T09:41:53.944Z,26.30
2018-07-16T09:44:22.238Z,26.40
2018-07-16T09:46:50.488Z,26.50
2018-07-16T09:49:18.707Z,26.70
2018-07-16T09:51:46.941Z,26.70
2018-07-16T09:54:15.164Z,26.80
2018-07-16T09:56:43.404Z,26.90
2018-07-16T09:59:11.615Z,27.00
2018-07-16T10:01:45.931Z,27.10
2018-07-16T10:04:15.104Z,27.10
2018-07-16T10:06:43.347Z,27.00
2018-07-16T10:09:11.556Z,26.80
2018-07-16T10:11:39.804Z,26.80
2018-07-16T10:14:08.060Z,26.80
2018-07-16T10:16:36.292Z,26.60
2018-07-16T10:19:04.519Z,26.60
2018-07-16T10:21:32.782Z,26.70
2018-07-16T10:24:00.996Z,26.70
2018-07-16T10:26:29.220Z,26.90
2018-07-16T10:28:57.456Z,27.00
2018-07-16T10:31:25.697Z,27.10
2018-07-16T10:33:53.957Z,27.00
2018-07-16T10:36:22.196Z,27.10
2018-07-16T10:38:50.439Z,26.80
2018-07-16T10:41:18.659Z,26.70
2018-07-16T10:43:46.893Z,26.80
2018-07-16T10:46:15.116Z,26.80
2018-07-16T10:48:43.363Z,26.70
2018-07-16T10:51:11.576Z,26.70
2018-07-16T10:53:39.815Z,26.70
2018-07-16T10:56:08.048Z,26.70
2018-07-16T10:58:36.290Z,26.80
2018-07-16T11:01:04.505Z,26.80
2018-07-16T11:03:32.757Z,26.90
2018-07-16T11:06:06.393Z,27.00
2018-07-16T11:08:34.644Z,27.00
2018-07-16T11:11:03.276Z,26.80
2018-07-16T11:13:31.520Z,27.00
2018-07-16T11:15:59.753Z,27.10
2018-07-16T11:18:27.968Z,27.10
2018-07-16T11:20:56.226Z,27.10
2018-07-16T11:23:24.443Z,27.10
2018-07-16T11:25:53.551Z,27.20
2018-07-16T11:28:21.880Z,27.40
2018-07-16T11:30:50.233Z,27.50
2018-07-16T11:33:18.457Z,27.50
2018-07-16T11:35:46.737Z,27.40
2018-07-16T11:38:14.956Z,27.30
2018-07-16T11:40:43.192Z,27.30
2018-07-16T11:43:11.406Z,27.40
2018-07-16T11:45:39.684Z,27.50
2018-07-16T11:48:07.965Z,27.50
2018-07-16T11:50:36.243Z,27.60
2018-07-16T11:53:04.730Z,27.80
2018-07-16T11:55:33.104Z,27.90
2018-07-16T11:58:01.630Z,27.90
2018-07-16T12:00:29.856Z,28.20
2018-07-16T12:02:58.105Z,28.20
2018-07-16T12:05:26.336Z,28.30
2018-07-16T12:07:54.584Z,28.20
2018-07-16T12:10:22.813Z,28.20
2018-07-16T12:12:51.086Z,28.30
2018-07-16T12:15:19.317Z,28.10
2018-07-16T12:17:47.564Z,28.00
2018-07-16T12:20:15.780Z,28.00
2018-07-16T12:22:44.020Z,28.00
2018-07-16T12:25:12.255Z,28.00
2018-07-16T12:27:40.516Z,27.90
2018-07-16T12:30:08.736Z,27.80
2018-07-16T12:32:36.983Z,27.90
2018-07-16T12:35:05.304Z,27.90
2018-07-16T12:37:33.548Z,27.80
2018-07-16T12:40:01.772Z,27.90
2018-07-16T12:42:30.227Z,27.90
2018-07-16T12:44:58.449Z,27.90
2018-07-16T12:47:26.703Z,28.00
2018-07-16T12:49:54.920Z,28.00
2018-07-16T12:52:23.166Z,28.20
2018-07-16T12:54:51.388Z,28.00
2018-07-16T12:57:19.634Z,28.10
2018-07-16T12:59:47.881Z,28.20
2018-07-16T13:02:16.108Z,28.20
2018-07-16T13:04:44.343Z,28.20
2018-07-16T13:07:12.614Z,28.30
2018-07-16T13:09:40.855Z,28.40
2018-07-16T13:12:09.224Z,28.30
2018-07-16T13:14:37.500Z,28.30
2018-07-16T13:17:05.776Z,28.40
2018-07-16T13:19:34.012Z,28.40
2018-07-16T13:22:02.256Z,28.70
2018-07-16T13:24:30.495Z,28.80
2018-07-16T13:26:58.721Z,28.90
2018-07-16T13:29:26.965Z,29.00
2018-07-16T13:31:55.205Z,28.90
2018-07-16T13:34:23.468Z,28.90
2018-07-16T13:36:51.692Z,29.00
2018-07-16T13:39:19.928Z,29.00
2018-07-16T13:41:48.168Z,29.00
2018-07-16T13:44:16.404Z,28.60
2018-07-16T13:46:44.690Z,28.30
2018-07-16T13:49:12.902Z,28.20
2018-07-16T13:51:41.143Z,28.20
2018-07-16T13:54:09.367Z,28.40
2018-07-16T13:56:37.600Z,28.30
2018-07-16T13:59:06.089Z,28.30
2018-07-16T14:01:34.340Z,28.30
2018-07-16T14:04:02.568Z,28.30
2018-07-16T14:06:30.805Z,28.40
2018-07-16T14:08:59.030Z,28.30
2018-07-16T14:11:27.292Z,28.20
2018-07-16T14:13:55.544Z,28.30
2018-07-16T14:16:23.787Z,28.40
2018-07-16T14:18:52.011Z,28.40
2018-07-16T14:21:20.247Z,28.40
2018-07-16T14:23:48.481Z,28.30
2018-07-16T14:26:16.738Z,28.30
2018-07-16T14:28:44.972Z,28.30
2018-07-16T14:31:13.205Z,28.40
2018-07-16T14:33:41.468Z,28.50
2018-07-16T14:36:09.719Z,28.50
2018-07-16T14:38:37.960Z,28.40
2018-07-16T14:41:06.176Z,28.40
2018-07-16T14:43:34.420Z,28.40
2018-07-16T14:46:02.653Z,28.30
2018-07-16T14:48:30.972Z,28.30
2018-07-16T14:50:59.199Z,28.40
2018-07-16T14:53:27.452Z,28.40
2018-07-16T14:55:56.501Z,28.30
2018-07-16T14:58:24.744Z,28.40
2018-07-16T15:00:52.969Z,28.40
2018-07-16T15:03:21.847Z,28.40
2018-07-16T15:05:50.099Z,28.40
2018-07-16T15:08:18.340Z,28.30
2018-07-16T15:10:46.562Z,28.40
2018-07-16T15:13:14.825Z,28.50
2018-07-16T15:15:43.046Z,28.40
2018-07-16T15:18:11.299Z,28.40
2018-07-16T15:20:39.636Z,28.30
2018-07-16T15:23:07.800Z,28.20
2018-07-16T15:25:36.033Z,28.20
2018-07-16T15:28:04.252Z,28.20
2018-07-16T15:30:32.505Z,28.10
2018-07-16T15:33:00.813Z,28.20
2018-07-16T15:35:29.083Z,28.20
2018-07-16T15:37:57.317Z,28.20
2018-07-16T15:40:25.568Z,28.20
2018-07-16T15:42:53.804Z,28.20
2018-07-16T15:45:22.047Z,28.20
2018-07-16T15:47:50.264Z,28.20
2018-07-16T15:50:18.500Z,28.20
2018-07-16T15:52:46.733Z,28.10
2018-07-16T15:55:14.977Z,28.10
2018-07-16T15:57:43.209Z,28.00
2018-07-16T16:00:11.452Z,28.10
2018-07-16T16:02:39.691Z,28.10
2018-07-16T16:05:07.927Z,28.10
2018-07-16T16:07:36.135Z,28.10
2018-07-16T16:10:04.484Z,28.10
2018-07-16T16:12:32.728Z,28.10
2018-07-16T16:15:01.000Z,28.10
2018-07-16T16:17:29.233Z,28.00
2018-07-16T16:19:57.529Z,28.00
2018-07-16T16:22:25.770Z,28.00
2018-07-16T16:24:54.034Z,28.00
2018-07-16T16:27:22.265Z,28.00
2018-07-16T16:29:50.496Z,27.90
2018-07-16T16:32:18.756Z,27.80
2018-07-16T16:34:46.993Z,27.60
2018-07-16T16:37:15.244Z,27.40
2018-07-16T16:39:43.608Z,27.20
2018-07-16T16:42:11.935Z,27.10
2018-07-16T16:44:40.115Z,27.10
2018-07-16T16:47:09.252Z,27.20
2018-07-16T16:49:37.506Z,27.20
2018-07-16T16:52:05.784Z,27.20
2018-07-16T16:54:34.089Z,27.30
2018-07-16T16:57:02.432Z,27.30
2018-07-16T16:59:30.825Z,27.30
2018-07-16T17:01:59.090Z,27.30
2018-07-16T17:04:27.317Z,27.30
2018-07-16T17:06:55.567Z,27.30
2018-07-16T17:09:23.803Z,27.30
2018-07-16T17:11:52.080Z,27.30
2018-07-16T17:14:20.327Z,27.30
2018-07-16T17:16:48.606Z,27.30
2018-07-16T17:19:16.832Z,27.30
2018-07-16T17:21:45.060Z,27.30
2018-07-16T17:24:13.316Z,27.30
2018-07-16T17:26:41.556Z,27.30
2018-07-16T17:29:09.801Z,27.30
2018-07-16T17:31:38.033Z,27.30
2018-07-16T17:34:06.288Z,27.20
2018-07-16T17:36:34.507Z,27.30
2018-07-16T17:39:02.748Z,27.20
2018-07-16T17:41:30.980Z,27.20
2018-07-16T17:43:59.240Z,27.10
2018-07-16T17:46:27.477Z,27.00
2018-07-16T17:48:55.729Z,26.90
2018-07-16T17:51:23.963Z,26.90
2018-07-16T17:53:52.216Z,26.80
2018-07-16T17:56:20.439Z,26.80
2018-07-16T17:58:48.709Z,26.60
2018-07-16T18:01:16.979Z,26.70
2018-07-16T18:03:45.184Z,26.70
2018-07-16T18:06:13.424Z,26.70
2018-07-16T18:08:41.690Z,26.70
2018-07-16T18:11:09.923Z,26.60
2018-07-16T18:13:38.175Z,26.40
2018-07-16T18:16:06.434Z,26.00
2018-07-16T18:18:34.659Z,25.80
2018-07-16T18:21:02.981Z,25.60
2018-07-16T18:23:31.162Z,25.50
2018-07-16T18:25:59.409Z,25.20
2018-07-16T18:28:27.675Z,24.80
2018-07-16T18:30:55.892Z,24.50
2018-07-16T18:33:24.124Z,24.30
2018-07-16T18:35:52.377Z,24.10
2018-07-16T18:38:20.609Z,23.90
2018-07-16T18:40:48.880Z,23.60
2018-07-16T18:43:17.117Z,23.50
2018-07-16T18:45:45.400Z,23.40
2018-07-16T18:48:13.639Z,23.30
2018-07-16T18:50:41.897Z,23.20
2018-07-16T18:53:10.130Z,23.10
2018-07-16T18:55:38.396Z,23.00
2018-07-16T18:58:06.643Z,22.90
2018-07-16T19:00:34.864Z,22.80
2018-07-16T19:03:03.112Z,22.70
2018-07-16T19:05:31.372Z,22.70
2018-07-16T19:07:59.608Z,22.60
2018-07-16T19:10:27.828Z,22.60
2018-07-16T19:12:56.084Z,22.50
2018-07-16T19:15:25.224Z,22.40
2018-07-16T19:17:54.064Z,22.30
2018-07-16T19:20:22.289Z,22.30
2018-07-16T19:25:24.127Z,22.10
2018-07-16T19:27:52.371Z,22.10
2018-07-16T19:30:20.601Z,22.10
